createdAt,value
2024-05-09T00:03:28.891Z,19.30
2024-05-09T00:05:59.969Z,19.20
2024-05-09T00:08:31.148Z,19.20
2024-05-09T00:11:00.778Z,19.20
2024-05-09T00:13:28.983Z,19.10
2024-05-09T00:15:57.010Z,19.10
2024-05-09T00:18:25.451Z,19.00
2024-05-09T00:20:53.784Z,19.00
2024-05-09T00:23:25.403Z,19.00
2024-05-09T00:25:56.986Z,19.00
2024-05-09T00:28:26.176Z,19.00
2024-05-09T00:30:54.373Z,19.00
2024-05-09T00:33:23.156Z,19.00
2024-05-09T00:35:51.215Z,19.00
2024-05-09T00:38:19.299Z,19.10
2024-05-09T00:40:47.351Z,19.00
2024-05-09T00:43:18.735Z,19.10
2024-05-09T00:45:47.255Z,19.00
2024-05-09T00:48:19.785Z,18.90
2024-05-09T00:53:33.794Z,18.90
2024-05-09T00:56:02.457Z,18.90
2024-05-09T00:58:35.569Z,18.80
2024-05-09T01:01:04.069Z,18.80
2024-05-09T01:03:33.462Z,18.90
2024-05-09T01:06:01.924Z,18.90
2024-05-09T01:08:30.442Z,18.90
2024-05-09T01:10:59.778Z,18.90
2024-05-09T01:13:28.173Z,19.00
2024-05-09T01:16:00.741Z,19.00
2024-05-09T01:18:29.070Z,19.00
2024-05-09T01:20:57.054Z,18.90
2024-05-09T01:23:29.612Z,18.90
2024-05-09T01:26:06.760Z,18.70
2024-05-09T01:28:34.861Z,18.70
2024-05-09T01:31:02.944Z,18.80
2024-05-09T01:33:54.849Z,18.90
2024-05-09T01:36:24.375Z,18.80
2024-05-09T01:38:55.697Z,18.70
2024-05-09T01:41:26.135Z,18.60
2024-05-09T01:43:54.908Z,18.70
2024-05-09T01:46:23.163Z,18.70
2024-05-09T01:48:51.816Z,18.50
2024-05-09T01:51:20.631Z,18.40
2024-05-09T01:53:49.018Z,18.30
2024-05-09T01:56:20.118Z,18.10
2024-05-09T01:59:13.184Z,18.20
2024-05-09T02:01:56.552Z,18.10
2024-05-09T02:04:26.588Z,18.10
2024-05-09T02:06:59.467Z,18.00
2024-05-09T02:09:27.528Z,18.10
2024-05-09T02:11:58.075Z,18.10
2024-05-09T02:14:26.274Z,18.20
2024-05-09T02:16:54.212Z,18.30
2024-05-09T02:19:22.573Z,18.20
2024-05-09T02:21:50.583Z,18.00
2024-05-09T02:24:18.694Z,18.00
2024-05-09T02:26:47.728Z,18.00
2024-05-09T02:29:22.402Z,18.10
2024-05-09T02:32:15.805Z,18.10
2024-05-09T02:34:44.046Z,17.90
2024-05-09T02:37:15.011Z,18.10
2024-05-09T02:39:46.407Z,18.20
2024-05-09T02:42:14.417Z,18.20
2024-05-09T02:44:44.935Z,18.20
2024-05-09T02:47:13.258Z,18.30
2024-05-09T02:49:41.316Z,18.30
2024-05-09T02:52:09.451Z,18.30
2024-05-09T02:54:37.545Z,18.20
2024-05-09T02:57:06.236Z,18.20
2024-05-09T02:59:34.238Z,18.30
2024-05-09T03:02:05.667Z,18.30
2024-05-09T03:04:54.037Z,18.30
2024-05-09T03:07:25.529Z,18.30
2024-05-09T03:09:57.937Z,18.20
2024-05-09T03:12:27.506Z,18.20
2024-05-09T03:14:55.730Z,18.20
2024-05-09T03:17:26.610Z,18.20
2024-05-09T03:19:56.614Z,18.10
2024-05-09T03:22:24.738Z,18.10
2024-05-09T03:25:03.847Z,18.10
2024-05-09T03:27:32.896Z,18.10
2024-05-09T03:30:00.744Z,18.20
2024-05-09T03:32:32.086Z,18.10
2024-05-09T03:35:00.161Z,18.10
2024-05-09T03:37:27.969Z,18.00
2024-05-09T03:39:56.373Z,17.90
2024-05-09T03:42:42.496Z,17.90
2024-05-09T03:45:11.333Z,17.90
2024-05-09T03:47:52.101Z,17.90
2024-05-09T03:50:26.479Z,17.80
2024-05-09T03:53:02.959Z,17.70
2024-05-09T03:55:34.615Z,17.70
2024-05-09T03:58:03.257Z,17.70
2024-05-09T04:00:37.598Z,17.70
2024-05-09T04:03:12.422Z,17.70
2024-05-09T04:05:43.024Z,17.60
2024-05-09T04:08:20.265Z,17.60
2024-05-09T04:10:48.496Z,17.50
2024-05-09T04:13:17.680Z,17.50
2024-05-09T04:15:45.859Z,17.60
2024-05-09T04:18:16.997Z,17.60
2024-05-09T04:20:45.151Z,17.60
2024-05-09T04:23:14.166Z,17.60
2024-05-09T04:25:43.935Z,17.60
2024-05-09T04:28:13.228Z,17.60
2024-05-09T04:30:43.676Z,17.70
2024-05-09T04:33:13.832Z,17.70
2024-05-09T04:35:49.211Z,17.60
2024-05-09T04:38:17.571Z,17.30
2024-05-09T04:40:45.921Z,17.10
2024-05-09T04:43:19.270Z,17.10
2024-05-09T04:45:47.240Z,17.20
2024-05-09T04:48:15.275Z,17.00
2024-05-09T04:50:49.393Z,17.10
2024-05-09T04:53:17.744Z,17.20
2024-05-09T04:55:46.246Z,17.20
2024-05-09T04:58:17.381Z,17.40
2024-05-09T05:00:45.748Z,17.40
2024-05-09T05:03:15.751Z,17.40
2024-05-09T05:05:46.075Z,17.60
2024-05-09T05:08:18.777Z,17.70
2024-05-09T05:10:49.117Z,17.90
2024-05-09T05:13:20.807Z,18.10
2024-05-09T05:15:52.932Z,18.20
2024-05-09T05:18:22.524Z,18.30
2024-05-09T05:23:25.615Z,18.50
2024-05-09T05:25:55.213Z,18.60
2024-05-09T05:28:24.392Z,18.80
2024-05-09T05:30:52.287Z,18.90
2024-05-09T05:33:24.655Z,19.00
2024-05-09T05:35:52.740Z,19.10
2024-05-09T05:38:26.289Z,19.20
2024-05-09T05:40:56.513Z,19.20
2024-05-09T05:43:24.850Z,19.20
2024-05-09T05:45:52.983Z,19.30
2024-05-09T05:48:21.184Z,19.30
2024-05-09T05:50:51.730Z,19.40
2024-05-09T05:53:19.852Z,19.50
2024-05-09T05:55:50.512Z,19.50
2024-05-09T05:58:20.784Z,19.60
2024-05-09T06:01:11.395Z,19.70
2024-05-09T06:03:39.675Z,19.80
2024-05-09T06:06:07.665Z,19.90
2024-05-09T06:08:36.524Z,19.90
2024-05-09T06:11:07.454Z,20.00
2024-05-09T06:13:35.298Z,20.10
2024-05-09T06:16:05.491Z,20.10
2024-05-09T06:18:35.504Z,20.20
2024-05-09T06:21:04.972Z,20.30
2024-05-09T06:23:34.719Z,20.30
2024-05-09T06:26:05.018Z,20.30
2024-05-09T06:28:35.823Z,20.40
2024-05-09T06:31:06.100Z,20.50
2024-05-09T06:33:36.044Z,20.60
2024-05-09T06:36:06.168Z,20.70
2024-05-09T06:38:35.016Z,20.80
2024-05-09T06:41:03.628Z,20.80
2024-05-09T06:43:37.631Z,20.90
2024-05-09T06:46:07.114Z,20.90
2024-05-09T06:48:36.832Z,20.90
2024-05-09T06:51:07.127Z,21.00
2024-05-09T06:53:35.132Z,21.10
2024-05-09T06:56:04.083Z,21.10
2024-05-09T06:58:35.570Z,21.20
2024-05-09T07:01:03.941Z,21.20
2024-05-09T07:03:33.437Z,21.30
2024-05-09T07:06:02.894Z,21.30
2024-05-09T07:08:31.446Z,21.30
2024-05-09T07:11:03.274Z,21.40
2024-05-09T07:13:31.626Z,21.30
2024-05-09T07:16:03.377Z,21.40
2024-05-09T07:18:32.319Z,21.50
2024-05-09T07:21:00.944Z,21.60
2024-05-09T07:23:32.407Z,21.70
2024-05-09T07:26:00.308Z,21.70
2024-05-09T07:28:28.698Z,21.80
2024-05-09T07:30:56.492Z,21.80
2024-05-09T07:33:27.518Z,21.90
2024-05-09T07:35:56.575Z,22.00
2024-05-09T07:38:25.823Z,22.00
2024-05-09T07:40:55.139Z,22.10
2024-05-09T07:43:24.327Z,22.20
2024-05-09T07:45:54.819Z,22.30
2024-05-09T07:50:00.394Z,22.30
2024-05-09T07:53:52.553Z,22.50
2024-05-09T07:56:24.262Z,22.60
2024-05-09T07:58:55.158Z,22.70
2024-05-09T08:01:24.882Z,22.80
2024-05-09T08:03:56.685Z,22.80
2024-05-09T08:06:25.823Z,22.60
2024-05-09T08:08:53.853Z,22.60
2024-05-09T08:11:24.953Z,22.70
2024-05-09T08:13:52.989Z,22.70
2024-05-09T08:16:21.074Z,22.80
2024-05-09T08:18:51.577Z,22.80
2024-05-09T08:21:23.871Z,22.90
2024-05-09T08:23:54.753Z,23.00
2024-05-09T08:26:22.654Z,23.00
2024-05-09T08:28:52.664Z,23.00
2024-05-09T08:31:21.327Z,23.10
2024-05-09T08:33:50.978Z,23.10
2024-05-09T08:36:22.211Z,23.00
2024-05-09T08:38:53.271Z,22.90
2024-05-09T08:41:26.140Z,23.00
2024-05-09T08:43:53.937Z,23.10
2024-05-09T08:46:23.017Z,23.10
2024-05-09T08:48:53.468Z,23.00
2024-05-09T08:51:23.017Z,23.00
2024-05-09T08:53:53.641Z,23.00
2024-05-09T08:56:21.849Z,23.00
2024-05-09T08:58:50.270Z,23.00
2024-05-09T09:01:18.988Z,23.00
2024-05-09T09:03:49.360Z,23.20
2024-05-09T09:06:20.104Z,23.20
2024-05-09T09:08:48.228Z,23.20
2024-05-09T09:11:18.964Z,23.30
2024-05-09T09:13:53.487Z,23.30
2024-05-09T09:16:32.494Z,23.30
2024-05-09T09:19:04.197Z,23.40
2024-05-09T09:21:32.587Z,23.50
2024-05-09T09:24:00.814Z,23.40
2024-05-09T09:26:34.613Z,23.40
2024-05-09T09:29:09.201Z,23.60
2024-05-09T09:31:39.567Z,23.60
2024-05-09T09:34:09.811Z,23.60
2024-05-09T09:36:39.864Z,23.60
2024-05-09T09:39:08.388Z,23.80
2024-05-09T09:41:40.383Z,23.70
2024-05-09T09:44:09.473Z,23.80
2024-05-09T09:46:37.616Z,23.90
2024-05-09T09:49:06.866Z,23.90
2024-05-09T09:51:35.892Z,23.80
2024-05-09T09:54:07.696Z,23.90
2024-05-09T09:56:37.424Z,24.00
2024-05-09T09:59:10.301Z,24.10
2024-05-09T10:01:41.257Z,24.10
2024-05-09T10:04:10.440Z,24.00
2024-05-09T10:06:44.820Z,24.00
2024-05-09T10:09:17.502Z,24.00
2024-05-09T10:11:51.791Z,24.20
2024-05-09T10:14:26.778Z,24.40
2024-05-09T10:17:04.267Z,24.50
2024-05-09T10:19:32.392Z,24.30
2024-05-09T10:22:03.884Z,24.30
2024-05-09T10:24:47.590Z,24.50
2024-05-09T10:27:15.922Z,24.80
2024-05-09T10:30:00.316Z,24.80
2024-05-09T10:32:29.042Z,24.70
2024-05-09T10:35:00.925Z,24.60
2024-05-09T10:37:32.138Z,24.60
2024-05-09T10:40:00.827Z,24.60
2024-05-09T10:42:31.127Z,24.70
2024-05-09T10:45:05.283Z,24.80
2024-05-09T10:47:34.111Z,24.80
2024-05-09T10:50:07.882Z,24.90
2024-05-09T10:52:40.112Z,25.00
2024-05-09T10:55:08.313Z,25.30
2024-05-09T10:57:58.532Z,25.40
2024-05-09T11:00:36.133Z,25.30
2024-05-09T11:03:05.826Z,25.20
2024-05-09T11:05:42.937Z,25.20
2024-05-09T11:08:11.510Z,25.30
2024-05-09T11:10:39.852Z,25.60
2024-05-09T11:13:07.939Z,25.60
2024-05-09T11:15:42.177Z,25.50
2024-05-09T11:18:23.625Z,25.50
2024-05-09T11:20:54.069Z,25.50
2024-05-09T11:23:22.352Z,25.60
2024-05-09T11:25:51.872Z,25.60
2024-05-09T11:28:21.162Z,25.60
2024-05-09T11:30:53.951Z,25.70
2024-05-09T11:33:23.087Z,25.80
2024-05-09T11:35:51.267Z,25.70
2024-05-09T11:38:19.032Z,25.70
2024-05-09T11:40:47.155Z,25.60
2024-05-09T11:43:15.770Z,25.60
2024-05-09T11:45:44.358Z,25.60
2024-05-09T11:48:16.440Z,25.80
2024-05-09T11:50:49.660Z,25.90
2024-05-09T11:53:17.972Z,26.10
2024-05-09T11:55:47.169Z,26.10
2024-05-09T11:58:20.548Z,26.10
2024-05-09T12:00:48.610Z,26.30
2024-05-09T12:03:21.287Z,26.70
2024-05-09T12:05:50.926Z,26.70
2024-05-09T12:08:19.143Z,26.50
2024-05-09T12:10:47.602Z,26.50
2024-05-09T12:13:16.942Z,26.60
2024-05-09T12:15:46.303Z,26.70
2024-05-09T12:18:14.877Z,26.70
2024-05-09T12:20:45.898Z,26.90
2024-05-09T12:23:15.479Z,27.10
2024-05-09T12:25:43.277Z,27.10
2024-05-09T12:28:12.419Z,27.00
2024-05-09T12:30:41.905Z,26.90
2024-05-09T12:33:11.821Z,26.90
2024-05-09T12:35:43.465Z,27.10
2024-05-09T12:38:17.482Z,27.20
2024-05-09T12:40:45.606Z,27.10
2024-05-09T12:43:14.004Z,27.20
2024-05-09T12:45:42.392Z,27.10
2024-05-09T12:48:12.561Z,27.20
2024-05-09T12:50:43.123Z,27.00
2024-05-09T12:53:11.254Z,27.00
2024-05-09T12:55:49.019Z,26.90
2024-05-09T12:58:24.749Z,27.00
2024-05-09T13:00:53.503Z,27.20
2024-05-09T13:03:22.373Z,27.30
2024-05-09T13:05:52.928Z,27.30
2024-05-09T13:08:21.467Z,27.30
2024-05-09T13:10:52.604Z,27.40
2024-05-09T13:13:20.968Z,27.50
2024-05-09T13:15:49.439Z,27.60
2024-05-09T13:18:17.897Z,27.70
2024-05-09T13:20:53.142Z,27.80
2024-05-09T13:23:21.324Z,27.90
2024-05-09T13:25:54.692Z,28.00
2024-05-09T13:28:23.496Z,28.20
2024-05-09T13:30:51.406Z,28.40
2024-05-09T13:33:19.417Z,28.50
2024-05-09T13:35:50.334Z,28.80
2024-05-09T13:38:20.729Z,29.00
2024-05-09T13:40:52.815Z,29.10
2024-05-09T13:43:23.255Z,29.10
2024-05-09T13:45:52.553Z,29.10
2024-05-09T13:48:22.382Z,29.30
2024-05-09T13:50:54.699Z,29.40
2024-05-09T13:53:25.665Z,29.70
2024-05-09T13:55:56.636Z,29.90
2024-05-09T13:58:24.909Z,30.10
2024-05-09T14:00:55.403Z,30.10
2024-05-09T14:03:24.374Z,29.90
2024-05-09T14:05:55.225Z,29.90
2024-05-09T14:08:23.490Z,30.00
2024-05-09T14:10:51.606Z,30.20
2024-05-09T14:13:23.073Z,30.40
2024-05-09T14:15:51.496Z,30.50
2024-05-09T14:18:20.674Z,30.50
2024-05-09T14:20:49.210Z,30.70
2024-05-09T14:23:20.721Z,30.60
2024-05-09T14:25:52.194Z,30.70
2024-05-09T14:28:25.276Z,30.80
2024-05-09T14:31:01.516Z,30.80
2024-05-09T14:33:31.162Z,31.10
2024-05-09T14:36:03.570Z,31.60
2024-05-09T14:38:32.250Z,31.90
2024-05-09T14:41:00.567Z,32.00
2024-05-09T14:43:33.370Z,32.30
2024-05-09T14:46:02.828Z,32.20
2024-05-09T14:48:30.865Z,32.20
2024-05-09T14:50:58.902Z,32.30
2024-05-09T14:53:28.545Z,32.30
2024-05-09T14:55:56.598Z,32.30
2024-05-09T14:58:25.396Z,32.70
2024-05-09T15:00:56.674Z,32.60
2024-05-09T15:03:24.735Z,32.80
2024-05-09T15:05:59.681Z,32.80
2024-05-09T15:08:28.069Z,33.00
2024-05-09T15:10:55.901Z,33.20
2024-05-09T15:13:25.226Z,33.40
2024-05-09T15:15:56.296Z,33.40
2024-05-09T15:18:33.450Z,33.70
2024-05-09T15:21:02.051Z,33.80
2024-05-09T15:23:30.107Z,34.10
2024-05-09T15:25:58.352Z,34.20
2024-05-09T15:28:26.785Z,34.40
2024-05-09T15:30:57.318Z,34.10
2024-05-09T15:33:25.905Z,34.20
2024-05-09T15:35:54.183Z,34.10
2024-05-09T15:38:22.669Z,34.10
2024-05-09T15:40:50.850Z,34.20
2024-05-09T15:43:21.408Z,34.20
2024-05-09T15:45:50.214Z,34.20
2024-05-09T15:48:22.036Z,34.20
2024-05-09T15:51:22.551Z,33.90
2024-05-09T15:53:46.987Z,33.90
2024-05-09T15:56:15.026Z,34.20
2024-05-09T15:58:42.996Z,34.60
2024-05-09T16:01:11.362Z,34.40
2024-05-09T16:03:43.035Z,34.50
2024-05-09T16:06:11.314Z,34.60
2024-05-09T16:08:40.532Z,35.00
2024-05-09T16:11:08.861Z,35.10
2024-05-09T16:13:37.086Z,35.20
2024-05-09T16:16:05.698Z,35.40
2024-05-09T16:18:33.439Z,35.40
2024-05-09T16:21:04.325Z,35.30
2024-05-09T16:23:32.571Z,35.40
2024-05-09T16:26:04.080Z,35.60
2024-05-09T16:28:37.216Z,36.10
2024-05-09T16:31:05.494Z,36.40
2024-05-09T16:33:33.841Z,36.30
2024-05-09T16:36:06.502Z,36.30
2024-05-09T16:38:34.903Z,36.10
2024-05-09T16:41:03.247Z,35.90
2024-05-09T16:43:39.095Z,36.10
2024-05-09T16:46:07.371Z,35.80
2024-05-09T16:48:36.986Z,36.30
2024-05-09T16:51:08.690Z,36.40
2024-05-09T16:53:36.853Z,36.50
2024-05-09T16:58:47.993Z,35.80
2024-05-09T17:01:17.870Z,35.70
2024-05-09T17:03:46.247Z,35.10
2024-05-09T17:06:17.670Z,34.60
2024-05-09T17:08:45.823Z,34.00
2024-05-09T17:11:15.778Z,33.80
2024-05-09T17:13:48.329Z,33.50
2024-05-09T17:16:18.549Z,33.20
2024-05-09T17:18:49.202Z,32.50
2024-05-09T17:21:20.653Z,31.90
2024-05-09T17:23:51.695Z,31.30
2024-05-09T17:26:20.052Z,30.30
2024-05-09T17:29:02.319Z,29.80
2024-05-09T17:31:32.787Z,29.50
2024-05-09T17:34:01.289Z,29.00
2024-05-09T17:36:35.386Z,28.40
2024-05-09T17:39:17.753Z,27.80
2024-05-09T17:41:49.019Z,27.50
2024-05-09T17:44:24.354Z,27.20
2024-05-09T17:46:52.813Z,26.90
2024-05-09T17:49:21.596Z,26.70
2024-05-09T17:52:16.550Z,26.50
2024-05-09T17:54:45.302Z,26.30
2024-05-09T17:57:20.224Z,26.00
2024-05-09T17:59:50.345Z,25.90
2024-05-09T18:02:41.392Z,25.90
2024-05-09T18:05:15.757Z,25.70
2024-05-09T18:07:47.087Z,25.60
2024-05-09T18:10:46.928Z,25.50
2024-05-09T18:13:15.205Z,25.30
2024-05-09T18:15:43.972Z,25.20
2024-05-09T18:18:14.585Z,25.10
2024-05-09T18:20:46.438Z,25.00
2024-05-09T18:23:22.089Z,24.90
2024-05-09T18:25:58.050Z,24.80
2024-05-09T18:28:44.408Z,24.80
2024-05-09T18:31:12.923Z,24.70
2024-05-09T18:33:43.494Z,24.60
2024-05-09T18:36:14.566Z,24.50
2024-05-09T18:38:48.146Z,24.50
2024-05-09T18:41:17.238Z,24.50
2024-05-09T18:43:59.186Z,24.40
2024-05-09T18:46:27.619Z,24.30
2024-05-09T18:48:57.142Z,24.20
2024-05-09T18:51:25.575Z,24.20
2024-05-09T18:54:02.526Z,24.10
2024-05-09T18:56:30.816Z,24.10
2024-05-09T18:59:00.052Z,24.00
2024-05-09T19:01:35.476Z,24.00
2024-05-09T19:07:33.872Z,23.90
2024-05-09T19:10:40.614Z,23.80
2024-05-09T19:13:13.369Z,23.80
2024-05-09T19:15:45.060Z,23.70
2024-05-09T19:18:14.291Z,23.70
2024-05-09T19:20:43.402Z,23.70
2024-05-09T19:23:14.495Z,23.50
2024-05-09T19:25:46.441Z,23.40
2024-05-09T19:28:15.175Z,23.30
2024-05-09T19:30:44.349Z,23.30
2024-05-09T19:33:14.609Z,23.20
2024-05-09T19:35:44.317Z,23.10
2024-05-09T19:38:14.573Z,23.00
2024-05-09T19:40:44.279Z,23.00
2024-05-09T19:43:15.113Z,23.10
2024-05-09T19:45:44.001Z,23.00
2024-05-09T19:48:13.202Z,23.00
2024-05-09T19:50:44.243Z,23.00
2024-05-09T19:53:14.178Z,23.00
2024-05-09T19:55:43.875Z,23.00
2024-05-09T19:58:12.927Z,23.10
2024-05-09T20:00:46.695Z,23.10
2024-05-09T20:03:16.296Z,23.00
2024-05-09T20:05:48.783Z,23.00
2024-05-09T20:08:17.840Z,22.90
2024-05-09T20:10:51.477Z,22.90
2024-05-09T20:13:40.585Z,22.80
2024-05-09T20:16:12.473Z,22.70
2024-05-09T20:18:41.569Z,22.70
2024-05-09T20:21:13.282Z,22.60
2024-05-09T20:23:42.260Z,22.60
2024-05-09T20:26:21.070Z,22.50
2024-05-09T20:29:14.236Z,22.40
2024-05-09T20:31:45.276Z,22.30
2024-05-09T20:34:13.626Z,22.30
2024-05-09T20:36:42.191Z,22.30
2024-05-09T20:39:10.234Z,22.30
2024-05-09T20:41:44.371Z,22.20
2024-05-09T20:44:12.983Z,22.10
2024-05-09T20:46:41.872Z,22.10
2024-05-09T20:49:13.773Z,22.10
2024-05-09T20:51:42.020Z,22.10
2024-05-09T20:54:10.240Z,22.00
2024-05-09T20:56:38.621Z,21.90
2024-05-09T20:59:14.568Z,21.80
2024-05-09T21:01:48.669Z,21.80
2024-05-09T21:04:20.620Z,21.70
2024-05-09T21:06:52.722Z,21.80
2024-05-09T21:09:30.430Z,21.70
2024-05-09T21:12:02.827Z,21.70
2024-05-09T21:14:34.738Z,21.70
2024-05-09T21:17:03.052Z,21.70
2024-05-09T21:19:34.369Z,21.70
2024-05-09T21:22:31.959Z,21.80
2024-05-09T21:25:03.312Z,21.80
2024-05-09T21:27:35.090Z,21.80
2024-05-09T21:30:05.822Z,21.70
2024-05-09T21:32:34.921Z,21.70
2024-05-09T21:35:06.874Z,21.60
2024-05-09T21:37:35.509Z,21.60
2024-05-09T21:40:11.283Z,21.60
2024-05-09T21:48:43.316Z,21.50
2024-05-09T21:51:32.376Z,21.50
2024-05-09T21:54:06.622Z,21.40
2024-05-09T21:56:52.753Z,21.50
2024-05-09T21:59:45.617Z,21.40
2024-05-09T22:02:14.764Z,21.40
2024-05-09T22:04:44.484Z,21.30
2024-05-09T22:10:52.959Z,21.30
2024-05-09T22:13:21.834Z,21.30
2024-05-09T22:15:50.962Z,21.20
2024-05-09T22:18:19.491Z,21.20
2024-05-09T22:20:59.907Z,21.20
2024-05-09T22:23:28.142Z,21.20
2024-05-09T22:26:02.788Z,21.20
2024-05-09T22:28:31.217Z,21.20
2024-05-09T22:33:48.325Z,21.20
2024-05-09T22:36:17.151Z,21.10
2024-05-09T22:39:04.740Z,21.10
2024-05-09T22:41:36.378Z,21.10
2024-05-09T22:44:05.818Z,21.00
2024-05-09T22:46:36.070Z,21.00
2024-05-09T22:49:04.638Z,20.90
2024-05-09T22:51:33.411Z,20.90
2024-05-09T22:54:10.866Z,20.90
2024-05-09T22:57:23.332Z,20.80
2024-05-09T22:59:54.450Z,20.80
2024-05-09T23:02:23.483Z,20.70
2024-05-09T23:07:35.265Z,20.60
2024-05-09T23:10:05.476Z,20.60
2024-05-09T23:12:37.050Z,20.60
2024-05-09T23:15:23.074Z,20.60
2024-05-09T23:18:37.887Z,20.60
2024-05-09T23:21:06.651Z,20.50
2024-05-09T23:23:34.630Z,20.50
2024-05-09T23:26:02.992Z,20.50
2024-05-09T23:28:32.823Z,20.40
2024-05-09T23:31:05.279Z,20.40
2024-05-09T23:33:34.032Z,20.40
2024-05-09T23:36:03.120Z,20.50
2024-05-09T23:38:31.628Z,20.50
2024-05-09T23:40:59.738Z,20.50
2024-05-09T23:43:38.273Z,20.50
2024-05-09T23:46:09.867Z,20.40
2024-05-09T23:48:40.816Z,20.50
2024-05-09T23:51:09.498Z,20.40
2024-05-09T23:53:38.107Z,20.40
2024-05-09T23:56:09.228Z,20.30
2024-05-09T23:58:37.561Z,20.30
